SBOSBO ATH / LGAV
Speedbird OnlineSpeedbird Online ATH / LGAV

Eleftherios Venizelos International Airport
13:27 32.7°C

Location Athens, Greece
Latitude: 37.9364013672
Longitude: 23.9444999695
Local Time 13:27 on 17 Jun 2024
UTC +3 hours (Europe/Athens)
Currency £1 equals EUR 1.19
METAR LGAV 170950Z 08008KT 040V100 CAVOK 32/11 Q1014 NOSIG
TAF TAF LGAV 170500Z 1706/1806 VRB03KT 9999 FEW030 BECMG 1707/1709 05012KT BECMG 1717/1719 35010KT
Weather As Of 17 Jun 2024 13:24
Description Clear sky
Wind 15 km/h from East (80°)
Cloud Cover 0%
Precipitation Rain: none, Snow: none
Sunrise 06:01
Sunset 20:48
NOTAM 23 active NOTAM
Rotations During the last 90 days there were
372 flights from LHR
1 flights from ATH
345 flights to LHR
1 flights to ATH
1 flights to JTR
Lounges Goldair CIP Lounge, A
Skyserv Business Lounge, International
Skyserv Melina Merkouri Lounge , Main Terminal
Swissport Executive Lounge, Main Terminal Building
Web Airport Website | Wikipedia
Codes IATA: ATH
ICAO: LGAV
Altitude 94 Meter / 308 Feet
Distance 2,393 KM / 1,487 Miles
from London.
Runways
RunwayLength (m)Surface
03L3800Asphalt
03R4000Asphalt
21L4000Asphalt
21R3800Asphalt
Radio
TypeDescriptionFrequency
APPATHINAI APP126.575
ARRATHINAI ARR132.975
ATISATIS136.125
CLDCLNC DEL118.675
DEPATHINAI DEP128.95
DIRATHINAI DIR121.4
GNDGND121.75
INFOINFO136.025
PMSVATHINAI VOLMET127.8
RDORDO563.7
TWRTWR136.275
Live ATC



Support Speedbird Online

© 2017-2024 Speedbird Online